Stations météo

réclame
Mon MeteoGroup
Leuchtturm Alte Weser, Allemagne (10124): Température de l'air & dewpoint: 10.01.2018 10:00:00 - 16.01.2018 10:00:00 (CET)Leuchtturm Alte Weser, Allemagne (10124): Vitesse du vent & gusts: 10.01.2018 10:00:00 - 16.01.2018 10:00:00 (CET)Leuchtturm Alte Weser, Allemagne (10124): Direction du vent: 10.01.2018 10:00:00 - 16.01.2018 10:00:00 (CET)Leuchtturm Alte Weser, Allemagne (10124): reduced air pressure: 10.01.2018 10:00:00 - 16.01.2018 10:00:00 (CET)Leuchtturm Alte Weser, Allemagne (10124): Ensoleillement: 10.01.2018 10:00:00 - 16.01.2018 10:00:00 (CET)
Date & Time tt [°C] td [°C] ff [km/h] ff [knt] fx [km/h] fx [knt] dd ppp [hPa] sd [min]
16.01.2018 10:00:00 4,0 2,7 47 25 - - SW 984,8 0
16.01.2018 09:00:00 3,8 2,5 43 23 54 29 SW 984,9 0
16.01.2018 08:00:00 4,0 2,9 40 21 58 31 SW 984,7 0
16.01.2018 07:00:00 3,9 2,4 47 25 - - SW 984,6 0
16.01.2018 06:00:00 4,7 2,9 47 25 54 29 SW 984,7 0
16.01.2018 05:00:00 4,9 3,4 43 23 58 31 SW 985,0 0
16.01.2018 04:00:00 5,4 3,6 50 27 - - SW 985,5 0
16.01.2018 03:00:00 4,8 3,8 61 33 86 47 WSW 985,6 0
16.01.2018 02:00:00 5,6 4,6 54 29 68 37 WSW 985,3 0
16.01.2018 01:00:00 5,9 5,2 58 31 - - WSW 984,2 0
16.01.2018 00:00:00 5,1 4,8 54 29 72 39 SSW 983,6 0
15.01.2018 23:00:00 4,2 3,1 58 31 68 37 S 984,4 0
15.01.2018 22:00:00 3,9 3,2 54 29 - - S 986,1 0
15.01.2018 21:00:00 3,9 3,7 58 31 68 37 S 988,0 0
15.01.2018 20:00:00 3,8 3,8 61 33 72 39 S 989,9 0
15.01.2018 19:00:00 4,0 3,8 58 31 - - S 991,3 0
15.01.2018 18:00:00 4,5 3,8 61 33 72 39 S 993,2 0
15.01.2018 17:00:00 4,5 3,1 58 31 68 37 SSE 994,9 0
15.01.2018 16:00:00 4,3 2,5 54 29 - - SSE 996,6 0
15.01.2018 15:00:00 3,9 1,8 50 27 65 35 SSE 998,7 0
15.01.2018 14:00:00 3,5 1,3 58 31 65 35 SSE 1000,2 0
15.01.2018 13:00:00 3,3 1,4 54 29 - - S 1002,8 0
15.01.2018 12:00:00 2,8 0,7 54 29 61 33 S 1004,6 0
15.01.2018 11:00:00 2,4 0,5 50 27 65 35 S 1006,3 0
15.01.2018 10:00:00 2,1 -0,2 47 25 - - SSE 1007,4 0
15.01.2018 09:00:00 1,7 -1,0 50 27 61 33 SSE 1008,5 0
15.01.2018 08:00:00 1,2 -1,5 50 27 61 33 SSE 1009,6 0
15.01.2018 07:00:00 0,8 -2,0 50 27 - - SSE 1010,5 0
15.01.2018 06:00:00 0,6 -2,0 50 27 58 31 SSE 1011,7 0
15.01.2018 05:00:00 0,4 -2,2 50 27 58 31 SSE 1013,1 0
15.01.2018 04:00:00 0,5 -2,3 47 25 - - SSE 1014,4 0
15.01.2018 03:00:00 0,6 -2,2 47 25 58 31 SSE 1015,6 0
15.01.2018 02:00:00 0,5 -1,8 50 27 61 33 SSE 1016,3 0
15.01.2018 01:00:00 0,5 -2,0 54 29 - - SSE 1017,1 0
15.01.2018 00:00:00 0,7 -2,1 50 27 65 35 SSE 1018,4 0
14.01.2018 23:00:00 0,9 -1,8 47 25 61 33 SSE 1019,3 0
14.01.2018 22:00:00 0,7 -1,7 40 21 - - SE 1020,4 0
14.01.2018 21:00:00 0,3 -1,9 36 19 50 27 SE 1021,1 0
14.01.2018 20:00:00 0,5 -2,1 40 21 47 25 SE 1021,6 0
14.01.2018 19:00:00 0,6 -1,9 36 19 - - SE 1022,0 0
14.01.2018 18:00:00 0,9 -2,6 36 19 - - SE 1022,4 0
14.01.2018 17:00:00 1,1 -2,3 32 18 - - ESE 1022,8 6
14.01.2018 16:00:00 1,4 -2,2 29 16 - - ESE 1023,2 60
14.01.2018 15:00:00 1,3 -2,7 32 18 - - SE 1023,0 60
14.01.2018 14:00:00 0,9 -2,9 29 16 - - SE 1024,1 36
14.01.2018 13:00:00 0,6 -3,2 32 18 - - SE 1024,6 0
14.01.2018 12:00:00 0,9 -4,2 32 18 50 27 SE 1025,3 0
14.01.2018 11:00:00 0,7 -4,6 43 23 50 27 SSE 1025,6 0
14.01.2018 10:00:00 0,4 -5,0 36 19 - - SE 1025,6 0
14.01.2018 09:00:00 0,0 -5,4 36 19 - - ESE 1025,9 0
14.01.2018 08:00:00 0,1 -5,1 36 19 47 25 SE 1026,2 0
14.01.2018 07:00:00 0,1 -4,7 36 19 - - ESE 1026,4 0
14.01.2018 06:00:00 0,1 -4,6 43 23 50 27 ESE 1026,3 0
14.01.2018 05:00:00 0,3 -3,7 43 23 47 25 ESE 1026,4 0
14.01.2018 04:00:00 0,3 -3,3 36 19 - - ESE 1026,9 0
14.01.2018 03:00:00 0,4 -2,8 40 21 47 25 ESE 1026,8 0
14.01.2018 02:00:00 0,2 -2,8 32 18 47 25 ESE 1027,3 0
14.01.2018 01:00:00 0,3 -3,1 36 19 - - ESE 1027,4 0
14.01.2018 00:00:00 0,4 -2,7 40 21 47 25 ESE 1027,6 0
13.01.2018 23:00:00 0,7 -2,2 40 21 47 25 ESE 1027,7 0
13.01.2018 22:00:00 1,0 -1,6 40 21 - - ESE 1028,1 0
13.01.2018 21:00:00 1,5 -0,4 32 18 - - ESE 1028,1 0
13.01.2018 20:00:00 1,5 0,4 36 19 - - ESE 1027,9 0
13.01.2018 19:00:00 1,7 0,7 32 18 - - ESE 1028,0 0
13.01.2018 18:00:00 1,7 0,7 29 16 - - ESE 1028,0 0
13.01.2018 17:00:00 2,0 1,1 29 16 - - ESE 1028,2 0
13.01.2018 16:00:00 2,0 1,1 32 18 - - ESE 1028,0 0
13.01.2018 15:00:00 2,1 1,3 32 18 - - ESE 1028,0 0
13.01.2018 14:00:00 2,3 1,8 32 18 - - ESE 1028,4 0
13.01.2018 13:00:00 2,3 1,7 29 16 - - SE 1028,6 0
13.01.2018 12:00:00 2,6 1,9 29 16 - - SE 1028,9 0
13.01.2018 11:00:00 2,5 1,9 32 18 - - SE 1029,0 0
13.01.2018 10:00:00 2,3 1,9 29 16 - - SE 1028,6 0
13.01.2018 09:00:00 2,3 1,9 29 16 - - SE 1028,3 0
13.01.2018 08:00:00 2,2 1,9 29 16 - - ESE 1028,1 0
13.01.2018 07:00:00 1,9 1,7 32 18 - - ESE 1028,1 0
13.01.2018 06:00:00 1,8 1,6 32 18 - - ESE 1028,2 0
13.01.2018 05:00:00 1,7 1,6 32 18 - - ESE 1028,3 0
13.01.2018 04:00:00 1,7 1,7 32 18 - - ESE 1028,7 0
13.01.2018 03:00:00 1,8 1,8 29 16 - - ESE 1029,0 0
13.01.2018 02:00:00 1,8 1,2 32 18 - - ESE 1028,9 0
13.01.2018 01:00:00 1,9 1,2 32 18 - - ESE 1029,3 0
13.01.2018 00:00:00 2,1 1,3 29 16 - - ESE 1029,5 0
12.01.2018 23:00:00 2,0 1,4 29 16 - - ESE 1029,5 0
12.01.2018 22:00:00 2,0 1,5 29 16 - - E 1029,6 0
12.01.2018 21:00:00 1,9 1,8 32 18 - - ESE 1029,4 0
12.01.2018 20:00:00 1,9 1,9 32 18 - - E 1029,2 0
12.01.2018 19:00:00 1,8 1,8 32 18 - - E 1029,0 0
12.01.2018 18:00:00 1,9 1,9 32 18 - - E 1028,9 0
12.01.2018 17:00:00 2,2 2,0 32 18 - - ESE 1028,7 0
12.01.2018 16:00:00 2,1 2,0 29 16 - - E 1028,4 0
12.01.2018 15:00:00 2,2 1,9 29 16 - - E 1027,9 0
12.01.2018 14:00:00 2,1 1,9 29 16 - - E 1027,9 0
12.01.2018 13:00:00 2,2 1,6 29 16 - - E 1028,1 0
12.01.2018 12:00:00 2,2 1,5 25 14 - - E 1028,3 0
12.01.2018 11:00:00 2,1 1,4 25 14 - - E 1027,8 0
12.01.2018 10:00:00 2,3 2,0 25 14 - - E 1027,2 0
12.01.2018 09:00:00 2,4 2,1 25 14 - - E 1026,6 0
12.01.2018 08:00:00 2,5 1,8 29 16 - - E 1025,7 0
12.01.2018 07:00:00 2,6 1,8 29 16 - - E 1025,4 0
12.01.2018 06:00:00 2,7 2,6 25 14 - - ENE 1025,1 0
12.01.2018 05:00:00 2,9 2,7 29 16 - - ENE 1024,9 0
12.01.2018 04:00:00 3,3 3,2 25 14 - - NE 1024,6 0
12.01.2018 03:00:00 3,3 3,1 25 14 - - NNE 1024,3 0
12.01.2018 02:00:00 3,4 3,2 25 14 - - NNE 1024,1 0
12.01.2018 01:00:00 3,5 2,9 25 14 - - NNE 1023,9 0
12.01.2018 00:00:00 3,4 2,9 22 12 - - NNE 1023,6 0
11.01.2018 23:00:00 3,4 2,1 25 14 - - NE 1023,1 0
11.01.2018 22:00:00 3,8 3,8 22 12 - - NE 1022,6 0
11.01.2018 21:00:00 3,9 3,8 22 12 - - NNE 1022,2 0
11.01.2018 20:00:00 3,8 3,6 14 8 - - NNE 1021,8 0
11.01.2018 19:00:00 3,7 3,6 18 10 - - NE 1021,4 0
11.01.2018 18:00:00 3,5 3,5 18 10 - - NE 1021,1 0
11.01.2018 17:00:00 3,3 3,3 22 12 - - NE 1020,5 0
11.01.2018 16:00:00 3,6 3,6 14 8 - - NNE 1019,8 0
11.01.2018 15:00:00 4,0 2,8 18 10 - - ENE 1019,1 30
11.01.2018 14:00:00 4,4 3,3 18 10 - - ENE 1018,5 42
11.01.2018 13:00:00 3,9 2,7 14 8 - - ENE 1018,4 0
11.01.2018 12:00:00 3,5 2,7 14 8 - - E 1018,3 0
11.01.2018 11:00:00 3,4 2,5 18 10 - - E 1018,1 6
11.01.2018 10:00:00 3,2 2,7 11 6 - - E 1017,4 0
11.01.2018 09:00:00 3,0 2,8 14 8 - - E 1016,5 0
11.01.2018 08:00:00 3,5 3,2 11 6 - - ESE 1015,5 0
11.01.2018 07:00:00 3,9 3,3 11 6 - - SSE 1014,6 0
11.01.2018 06:00:00 3,6 3,6 18 10 - - E 1014,1 0
11.01.2018 05:00:00 3,9 3,9 14 8 - - ESE 1013,6 0
11.01.2018 04:00:00 4,6 3,8 11 6 - - SE 1013,4 0
11.01.2018 03:00:00 4,5 3,8 18 10 - - ESE 1013,1 0
11.01.2018 02:00:00 5,8 4,2 14 8 - - SSE 1012,6 0
11.01.2018 01:00:00 5,3 4,0 18 10 - - SE 1012,3 0
11.01.2018 00:00:00 5,7 4,2 18 10 - - SE 1012,0 0
10.01.2018 23:00:00 5,9 4,3 18 10 - - SE 1011,6 0
10.01.2018 22:00:00 6,0 4,5 22 12 - - SSE 1011,2 0
10.01.2018 21:00:00 5,7 4,4 18 10 - - SE 1011,0 0
10.01.2018 20:00:00 5,7 4,4 22 12 - - SSE 1010,8 0
10.01.2018 19:00:00 5,6 4,3 25 14 - - SSE 1010,4 0
10.01.2018 18:00:00 5,2 4,0 25 14 - - SE 1010,1 0
10.01.2018 17:00:00 5,2 3,8 22 12 - - SE 1009,9 0
10.01.2018 16:00:00 5,1 3,7 18 10 - - SE 1009,7 0
10.01.2018 15:00:00 4,7 3,5 18 10 - - SE 1009,3 0
10.01.2018 14:00:00 4,5 3,3 18 10 - - SE 1009,3 0
10.01.2018 13:00:00 4,2 3,2 18 10 - - SE 1009,6 0
10.01.2018 12:00:00 4,4 3,0 22 12 - - SSE 1009,7 0
10.01.2018 11:00:00 3,8 2,7 25 14 - - SSE 1009,8 0
10.01.2018 10:00:00 3,7 2,9 25 14 - - SSE 1009,9 0

tt = Température de l'air
td = dewpoint
ff = Vitesse du vent
fx = gusts
dd = Direction du vent
ppp = reduced air pressure
sd = Ensoleillement

stations d'obs. à proximité